Have a Safe July 4th! 

Flight Track Log - Related Links

Times and Time Zones

All times are in EDT time to prevent confusion due to time zone crossing. See the SWA1319 flight status page for this flight to view local times or setup timezone preferences in your user account.

Time Position Orientation Groundspeed Altitude Reporting Facility
EDT Latitude Longitude Course Direction KTS MPH feet Rate Location/Type
Fri 01:54:39 PM 33.5094 -86.8567 238° Southwest 256 295 4,500  Level Atlanta Center
Fri 01:55:41 PM 33.4953 -86.9333 258° West 291 335 7,500 2,754 Climbing Atlanta Center
Fri 01:56:41 PM 33.4931 -87.0281 268° West 291 335 10,100 2,200 Climbing Atlanta Center
Fri 01:57:41 PM 33.4839 -87.1372 264° West 312 359 11,900 2,200 Climbing Atlanta Center
Fri 01:58:41 PM 33.4706 -87.2539 262° West 337 388 14,500 2,456 Climbing Atlanta Center
Fri 02:00:10 PM 33.4536 -87.4367 264° West 353 406 18,000 2,304 Climbing Memphis Center
Fri 02:00:33 PM 33.4547 -87.4814 272° West 366 421 18,800 2,024 Climbing Memphis Center
Fri 02:01:33 PM 33.4597 -87.6058 273° West 383 441 20,800 1,950 Climbing Memphis Center
Fri 02:02:33 PM 33.4625 -87.7328 272° West 383 441 22,700 1,600 Climbing Memphis Center
Fri 02:03:33 PM 33.4650 -87.8619 271° West 383 441 24,000 1,600 Climbing Memphis Center
Fri 02:04:33 PM 33.4697 -87.9964 272° West 396 456 25,900 2,200 Climbing Memphis Center
Fri 02:05:33 PM 33.4742 -88.1258 272° West 401 461 28,400 2,200 Climbing Memphis Center
Fri 02:06:33 PM 33.4806 -88.2528 273° West 401 461 30,300 1,600 Climbing Memphis Center
Fri 02:07:33 PM 33.4828 -88.3722 271° West 381 438 31,600 1,200 Climbing Memphis Center
Fri 02:08:33 PM 33.4867 -88.4992 272° West 381 438 32,700 1,250 Climbing Memphis Center
Fri 02:09:33 PM 33.4864 -88.6186 270° West 370 426 34,100 700 Climbing Memphis Center
Fri 02:10:33 PM 33.4858 -88.7408 270° West 365 420 34,100 500 Level Memphis Center
Fri 02:11:33 PM 33.4833 -88.8603 269° West 365 420 35,100 950 Climbing Memphis Center
Fri 02:12:33 PM 33.4847 -88.9822 271° West 365 420 36,000 500 Climbing Memphis Center
Fri 02:13:33 PM 33.4817 -89.0894 268° West 365 420 36,100 50 Climbing Memphis Center
Fri 02:14:33 PM 33.4806 -89.2092 269° West 365 420 36,100  Level Memphis Center
Fri 02:15:33 PM 33.4797 -89.3311 270° West 365 420 36,100  Level Memphis Center
Fri 02:16:33 PM 33.4786 -89.4531 269° West 365 420 36,100  Level Memphis Center
Fri 02:17:33 PM 33.4772 -89.5778 269° West 365 420 36,100  Level Memphis Center
Fri 02:18:33 PM 33.4739 -89.6972 268° West 365 420 36,100  Level Memphis Center
Fri 02:19:33 PM 33.4722 -89.8217 269° West 365 420 36,100  Level Memphis Center
Fri 02:20:33 PM 33.4686 -89.9439 268° West 365 420 36,100  Level Memphis Center
Fri 02:21:33 PM 33.4669 -90.0683 269° West 365 420 36,100  Level Memphis Center
Fri 02:22:33 PM 33.4650 -90.1928 269° West 365 420 36,100  Level Memphis Center
Fri 02:23:33 PM 33.4506 -90.3125 262° West 365 420 36,100  Level Memphis Center
Fri 02:24:33 PM 33.3794 -90.4344 235° Southwest 371 427 36,100  Level Memphis Center
Fri 02:25:33 PM 33.3231 -90.5461 239° Southwest 386 444 36,100  Level Memphis Center
Fri 02:26:33 PM 33.2644 -90.6553 237° Southwest 399 459 36,100  Level Memphis Center
Fri 02:27:33 PM 33.2036 -90.7669 237° Southwest 409 471 36,100  Level Memphis Center
Fri 02:28:33 PM 33.1469 -90.8733 238° Southwest 409 471 36,100  Level Memphis Center
Fri 02:29:33 PM 33.0878 -90.9844 238° Southwest 404 465 36,100  Level Memphis Center
Fri 02:30:33 PM 33.0308 -91.0933 238° Southwest 404 465 36,100  Level Memphis Center
Fri 02:32:42 PM 32.9050 -91.3222 237° Southwest 402 463 36,100  Level Fort Worth Center
Fri 02:33:42 PM 32.8497 -91.4322 239° Southwest 397 457 36,100  Level Fort Worth Center
Fri 02:34:42 PM 32.7900 -91.5375 236° Southwest 392 451 36,100  Level Fort Worth Center
Fri 02:35:42 PM 32.7322 -91.6400 236° Southwest 387 445 36,100  Level Fort Worth Center
Fri 02:36:42 PM 32.6767 -91.7497 239° Southwest 387 445 36,100  Level Fort Worth Center
Fri 02:37:42 PM 32.6186 -91.8519 236° Southwest 387 445 36,100  Level Fort Worth Center
Fri 02:38:42 PM 32.5606 -91.9567 237° Southwest 387 445 36,100  Level Fort Worth Center
Fri 02:39:42 PM 32.5153 -92.0678 244° Southwest 387 445 36,100  Level Fort Worth Center
Fri 02:40:42 PM 32.5056 -92.1864 264° West 358 412 36,100  Level Fort Worth Center
Fri 02:41:42 PM 32.5003 -92.3075 267° West 364 419 36,100  Level Fort Worth Center
Fri 02:42:42 PM 32.4925 -92.4286 266° West 371 427 36,100  Level Fort Worth Center
Fri 02:43:42 PM 32.4858 -92.5275 265° West 359 413 36,100  Level Fort Worth Center
Fri 02:44:42 PM 32.4781 -92.6461 266° West 359 413 36,100  Level Fort Worth Center
Fri 02:45:42 PM 32.4658 -92.7647 263° West 365 420 36,100  Level Fort Worth Center
Fri 02:46:42 PM 32.4575 -92.8833 265° West 365 420 36,100  Level Fort Worth Center
Fri 02:47:42 PM 32.4494 -93.0044 266° West 372 428 36,100  Level Fort Worth Center
Fri 02:48:42 PM 32.4386 -93.1206 264° West 372 428 36,100  Level Fort Worth Center
Fri 02:49:42 PM 32.4286 -93.2517 265° West 366 421 36,100  Level Fort Worth Center
Fri 02:50:42 PM 32.4178 -93.3703 264° West 371 427 36,100  Level Fort Worth Center
Fri 02:51:42 PM 32.4092 -93.4911 265° West 371 427 36,100  Level Fort Worth Center
Fri 02:52:42 PM 32.4003 -93.6119 265° West 371 427 36,100  Level Fort Worth Center
Fri 02:53:42 PM 32.4036 -93.7275 272° West 366 421 36,100  Level Fort Worth Center
Fri 02:54:42 PM 32.4031 -93.8506 270° West 366 421 36,100  Level Fort Worth Center
Fri 02:55:42 PM 32.4044 -93.9711 271° West 366 421 36,100  Level Fort Worth Center
Fri 02:56:42 PM 32.4056 -94.0892 271° West 366 421 36,100  Level Fort Worth Center
Fri 02:57:42 PM 32.4086 -94.2094 272° West 366 421 36,100  Level Fort Worth Center
Fri 02:58:42 PM 32.4094 -94.3300 271° West 366 421 36,100  Level Fort Worth Center
Fri 02:59:42 PM 32.4103 -94.4531 270° West 366 421 36,100  Level Fort Worth Center
Fri 03:00:42 PM 32.4153 -94.5736 273° West 366 421 36,100  Level Fort Worth Center
Fri 03:01:42 PM 32.4136 -94.6892 269° West 366 421 36,100 -300 Level Fort Worth Center
Fri 03:02:42 PM 32.4056 -94.8100 266° West 366 421 35,500 -1,000 Descending Fort Worth Center
Fri 03:03:42 PM 32.3872 -94.9236 259° West 366 421 34,100 -1,250 Descending Fort Worth Center
Fri 03:04:42 PM 32.3767 -95.0297 263° West 366 421 33,000 -1,000 Descending Fort Worth Center
Fri 03:05:42 PM 32.3558 -95.1508 259° West 371 427 32,100 -1,800 Descending Fort Worth Center
Fri 03:06:42 PM 32.3353 -95.2889 260° West 381 438 29,400 -3,200 Descending Fort Worth Center
Fri 03:07:42 PM 32.3686 -95.4111 288° West 373 429 25,700 -3,500 Descending Fort Worth Center
Fri 03:08:42 PM 32.3936 -95.5386 283° West 392 451 22,400 -3,150 Descending Fort Worth Center
Fri 03:09:42 PM 32.4225 -95.6586 286° West 392 451 19,400 -2,800 Descending Fort Worth Center
Fri 03:10:42 PM 32.4492 -95.7786 285° West 387 445 16,800 -2,250 Descending Fort Worth Center
Fri 03:11:42 PM 32.4736 -95.8964 284° West 375 432 14,900 -1,500 Descending Fort Worth Center
Fri 03:12:42 PM 32.4914 -95.9947 282° West 363 418 13,800 -1,250 Descending Fort Worth Center
Fri 03:13:42 PM 32.5178 -96.1150 285° West 350 403 12,400 -1,700 Descending Fort Worth Center
Fri 03:14:42 PM 32.5375 -96.2158 283° West 350 403 10,400 -1,600 Descending Fort Worth Center
Fri 03:15:42 PM 32.5614 -96.3264 284° West 335 386 9,200 -1,150 Descending Fort Worth Center
Fri 03:16:42 PM 32.5997 -96.3950 304° West 294 338 8,100 -1,550 Descending Fort Worth Center
Fri 03:17:42 PM 32.6506 -96.4833 304° West 294 338 6,100 -1,300 Descending Fort Worth Center
Fri 03:18:42 PM 32.7072 -96.5344 323° Northwest 288 331 5,500 -750 Descending Fort Worth Center
Fri 03:19:42 PM 32.7639 -96.5958 318° Northwest 258 297 4,600 -700 Descending Fort Worth Center
Fri 03:20:42 PM 32.8081 -96.6522 313° West 251 289 4,100 -600 Descending Fort Worth Center
Fri 03:21:42 PM 32.8608 -96.7233 311° West 261 300 3,400 -500 Descending Fort Worth Center
Fri 03:22:42 PM 32.9069 -96.7875 311° West 261 300 3,100 -650 Descending Fort Worth Center
Fri 03:23:42 PM 32.9364 -96.8517 299° West 238 274 2,100 -880 Descending Fort Worth Center
Fri 03:23:57 PM 32.9333 -96.8667 256° West 232 267 2,000 -480 Descending Dallas / Fort Worth TRACON
Fri 03:24:57 PM 32.9000 -96.9000 220° Southwest 143 165 1,500 -600 Descending Dallas / Fort Worth TRACON
Fri 03:25:57 PM 32.8667 -96.8667 140° Southeast 130 150 800 8,182 Descending Dallas / Fort Worth TRACON
Fri 03:27:42 PM 32.8217 -96.8497 162° South 107 123 24,000 13,257 Climbing Fort Worth Center

Login

Don't have an account? Register now (free) for customized features, flight alerts, and more!